Souris, North Dakota
Current Conditions -  °F | °C
As of 7:58 PM on Friday 28 Nov 2014 (Local Time) from KMIB Reporting Station
Clear Clear  
Wind Chill:   Ceiling: Unl
Heat Index: 11°   Visibility: 10mi
Dew Point:   Wind: 7mph
Humidity: 90%   Direction: 40°NE
Pressure: 29.51"   Gusts: NA
Location:  48.91°N, 100.68°W
Report Text: KMIB 290158Z AUTO 04006KT 10SM CLR M12/M13 A2951 RMK AO2 VIS 3/4 RWY29 SLP033 T11181131
Loading
Personal Weather Stations






























Interactive Weather Map New forecast layout! Learn more

10-Day Weather Forecast

Advertisements
Track Severe Weather on mobile